sensor_id;sensor_type;location;lat;lon;timestamp;temperature;humidity
11922;DHT22;6021;51.182;3.160;2023-05-07T00:02:08;14.10;99.90
11922;DHT22;6021;51.182;3.160;2023-05-07T00:04:36;14.10;99.90
11922;DHT22;6021;51.182;3.160;2023-05-07T00:07:06;13.90;99.90
11922;DHT22;6021;51.182;3.160;2023-05-07T00:09:34;14.20;99.90
11922;DHT22;6021;51.182;3.160;2023-05-07T00:12:02;14.20;99.90
11922;DHT22;6021;51.182;3.160;2023-05-07T00:14:31;14.50;99.90
11922;DHT22;6021;51.182;3.160;2023-05-07T00:16:59;14.20;99.90
11922;DHT22;6021;51.182;3.160;2023-05-07T00:19:28;14.20;99.90
11922;DHT22;6021;51.182;3.160;2023-05-07T00:21:56;14.20;99.90
11922;DHT22;6021;51.182;3.160;2023-05-07T00:24:25;14.30;99.90
11922;DHT22;6021;51.182;3.160;2023-05-07T00:26:53;14.20;99.90
11922;DHT22;6021;51.182;3.160;2023-05-07T00:29:22;14.20;99.90
11922;DHT22;6021;51.182;3.160;2023-05-07T00:31:50;14.10;99.90
11922;DHT22;6021;51.182;3.160;2023-05-07T00:34:19;14.20;99.90
11922;DHT22;6021;51.182;3.160;2023-05-07T00:36:48;14.20;99.90
11922;DHT22;6021;51.182;3.160;2023-05-07T00:39:16;14.20;99.90
11922;DHT22;6021;51.182;3.160;2023-05-07T00:41:44;14.40;99.90
11922;DHT22;6021;51.182;3.160;2023-05-07T00:44:13;14.30;99.90
11922;DHT22;6021;51.182;3.160;2023-05-07T00:46:42;14.20;99.90
11922;DHT22;6021;51.182;3.160;2023-05-07T00:49:10;14.10;99.90
11922;DHT22;6021;51.182;3.160;2023-05-07T00:51:39;14.30;99.90
11922;DHT22;6021;51.182;3.160;2023-05-07T00:54:08;14.20;99.90
11922;DHT22;6021;51.182;3.160;2023-05-07T00:56:37;14.20;99.90
11922;DHT22;6021;51.182;3.160;2023-05-07T00:59:06;14.20;99.90
11922;DHT22;6021;51.182;3.160;2023-05-07T01:01:35;14.30;99.90
11922;DHT22;6021;51.182;3.160;2023-05-07T01:04:04;14.30;99.90
11922;DHT22;6021;51.182;3.160;2023-05-07T01:06:32;14.30;99.90
11922;DHT22;6021;51.182;3.160;2023-05-07T01:09:01;14.20;99.90
11922;DHT22;6021;51.182;3.160;2023-05-07T01:11:32;14.20;99.90
11922;DHT22;6021;51.182;3.160;2023-05-07T01:14:00;14.20;99.90
11922;DHT22;6021;51.182;3.160;2023-05-07T01:16:29;14.20;99.90
11922;DHT22;6021;51.182;3.160;2023-05-07T01:18:58;14.20;99.90
11922;DHT22;6021;51.182;3.160;2023-05-07T01:21:27;14.20;99.90
11922;DHT22;6021;51.182;3.160;2023-05-07T01:23:57;14.20;99.90
11922;DHT22;6021;51.182;3.160;2023-05-07T01:26:26;14.20;99.90
11922;DHT22;6021;51.182;3.160;2023-05-07T01:28:54;14.20;99.90
11922;DHT22;6021;51.182;3.160;2023-05-07T01:31:23;14.10;99.90
11922;DHT22;6021;51.182;3.160;2023-05-07T01:33:53;14.10;99.90
11922;DHT22;6021;51.182;3.160;2023-05-07T01:36:23;14.10;99.90
11922;DHT22;6021;51.182;3.160;2023-05-07T01:38:53;14.10;99.90
11922;DHT22;6021;51.182;3.160;2023-05-07T01:41:22;13.90;99.90
11922;DHT22;6021;51.182;3.160;2023-05-07T01:43:52;14.10;99.90
11922;DHT22;6021;51.182;3.160;2023-05-07T01:46:22;14.10;99.90
11922;DHT22;6021;51.182;3.160;2023-05-07T01:48:50;14.10;99.90
11922;DHT22;6021;51.182;3.160;2023-05-07T01:51:19;14.10;99.90
11922;DHT22;6021;51.182;3.160;2023-05-07T01:53:49;14.00;99.90
11922;DHT22;6021;51.182;3.160;2023-05-07T01:56:18;14.00;99.90
11922;DHT22;6021;51.182;3.160;2023-05-07T01:58:47;14.10;99.90
11922;DHT22;6021;51.182;3.160;2023-05-07T02:01:15;14.00;99.90
11922;DHT22;6021;51.182;3.160;2023-05-07T02:03:44;13.80;99.90
11922;DHT22;6021;51.182;3.160;2023-05-07T02:06:12;13.90;99.90
11922;DHT22;6021;51.182;3.160;2023-05-07T02:08:41;13.80;99.90
11922;DHT22;6021;51.182;3.160;2023-05-07T02:11:09;13.80;99.90
11922;DHT22;6021;51.182;3.160;2023-05-07T02:13:37;14.00;99.90
11922;DHT22;6021;51.182;3.160;2023-05-07T02:16:06;13.70;99.90
11922;DHT22;6021;51.182;3.160;2023-05-07T02:18:34;13.50;99.90
11922;DHT22;6021;51.182;3.160;2023-05-07T02:21:03;13.60;99.90
11922;DHT22;6021;51.182;3.160;2023-05-07T02:23:31;13.70;99.90
11922;DHT22;6021;51.182;3.160;2023-05-07T02:25:59;13.70;99.90
11922;DHT22;6021;51.182;3.160;2023-05-07T02:28:28;14.00;99.90
11922;DHT22;6021;51.182;3.160;2023-05-07T02:30:56;13.70;99.90
11922;DHT22;6021;51.182;3.160;2023-05-07T02:33:25;14.00;99.90
11922;DHT22;6021;51.182;3.160;2023-05-07T02:35:54;13.90;99.90
11922;DHT22;6021;51.182;3.160;2023-05-07T02:38:22;13.70;99.90
11922;DHT22;6021;51.182;3.160;2023-05-07T02:40:51;13.60;99.90
11922;DHT22;6021;51.182;3.160;2023-05-07T02:43:19;13.50;99.90
11922;DHT22;6021;51.182;3.160;2023-05-07T02:45:47;13.50;99.90
11922;DHT22;6021;51.182;3.160;2023-05-07T02:48:16;13.50;99.90
11922;DHT22;6021;51.182;3.160;2023-05-07T02:50:44;13.50;99.90
11922;DHT22;6021;51.182;3.160;2023-05-07T02:53:12;13.50;99.90
11922;DHT22;6021;51.182;3.160;2023-05-07T02:55:41;13.50;99.90
11922;DHT22;6021;51.182;3.160;2023-05-07T02:58:09;13.50;99.90
11922;DHT22;6021;51.182;3.160;2023-05-07T03:00:37;13.40;99.90
11922;DHT22;6021;51.182;3.160;2023-05-07T03:03:06;13.40;99.90
11922;DHT22;6021;51.182;3.160;2023-05-07T03:05:34;13.40;99.90
11922;DHT22;6021;51.182;3.160;2023-05-07T03:08:02;13.40;99.90
11922;DHT22;6021;51.182;3.160;2023-05-07T03:10:31;13.40;99.90
11922;DHT22;6021;51.182;3.160;2023-05-07T03:13:00;13.40;99.90
11922;DHT22;6021;51.182;3.160;2023-05-07T03:15:29;13.50;99.90
11922;DHT22;6021;51.182;3.160;2023-05-07T03:17:57;13.50;99.90
11922;DHT22;6021;51.182;3.160;2023-05-07T03:20:26;13.60;99.90
11922;DHT22;6021;51.182;3.160;2023-05-07T03:22:54;13.40;99.90
11922;DHT22;6021;51.182;3.160;2023-05-07T03:25:22;13.50;99.90
11922;DHT22;6021;51.182;3.160;2023-05-07T03:27:51;13.30;99.90
11922;DHT22;6021;51.182;3.160;2023-05-07T03:30:19;13.40;99.90
11922;DHT22;6021;51.182;3.160;2023-05-07T03:32:47;13.40;99.90
11922;DHT22;6021;51.182;3.160;2023-05-07T03:35:16;13.40;99.90
11922;DHT22;6021;51.182;3.160;2023-05-07T03:37:44;13.40;99.90
11922;DHT22;6021;51.182;3.160;2023-05-07T03:40:12;13.40;99.90
11922;DHT22;6021;51.182;3.160;2023-05-07T03:42:41;13.30;99.90
11922;DHT22;6021;51.182;3.160;2023-05-07T03:45:09;13.40;99.90
11922;DHT22;6021;51.182;3.160;2023-05-07T03:47:38;13.40;99.90
11922;DHT22;6021;51.182;3.160;2023-05-07T03:50:06;13.40;99.90
11922;DHT22;6021;51.182;3.160;2023-05-07T03:52:34;13.40;99.90
11922;DHT22;6021;51.182;3.160;2023-05-07T03:55:03;13.50;99.90
11922;DHT22;6021;51.182;3.160;2023-05-07T03:57:31;13.50;99.90
11922;DHT22;6021;51.182;3.160;2023-05-07T03:59:59;13.50;99.90
11922;DHT22;6021;51.182;3.160;2023-05-07T04:02:29;13.50;99.90
11922;DHT22;6021;51.182;3.160;2023-05-07T04:04:58;13.50;99.90
11922;DHT22;6021;51.182;3.160;2023-05-07T04:07:26;13.80;99.90
11922;DHT22;6021;51.182;3.160;2023-05-07T04:09:54;13.50;99.90
11922;DHT22;6021;51.182;3.160;2023-05-07T04:12:23;13.50;99.90
11922;DHT22;6021;51.182;3.160;2023-05-07T04:14:51;13.50;99.90
11922;DHT22;6021;51.182;3.160;2023-05-07T04:17:20;13.40;99.90
11922;DHT22;6021;51.182;3.160;2023-05-07T04:19:48;13.40;99.90
11922;DHT22;6021;51.182;3.160;2023-05-07T04:22:16;13.40;99.90
11922;DHT22;6021;51.182;3.160;2023-05-07T04:24:45;13.50;99.90
11922;DHT22;6021;51.182;3.160;2023-05-07T04:27:13;13.60;99.90
11922;DHT22;6021;51.182;3.160;2023-05-07T04:29:42;13.60;99.90
11922;DHT22;6021;51.182;3.160;2023-05-07T04:32:12;13.70;99.90
11922;DHT22;6021;51.182;3.160;2023-05-07T04:34:40;13.80;99.90
11922;DHT22;6021;51.182;3.160;2023-05-07T04:37:09;13.90;99.90
11922;DHT22;6021;51.182;3.160;2023-05-07T04:39:38;13.80;99.90
11922;DHT22;6021;51.182;3.160;2023-05-07T04:42:06;13.90;99.90
11922;DHT22;6021;51.182;3.160;2023-05-07T04:44:36;13.90;99.90
11922;DHT22;6021;51.182;3.160;2023-05-07T04:47:04;13.80;99.90
11922;DHT22;6021;51.182;3.160;2023-05-07T04:49:33;13.80;99.90
11922;DHT22;6021;51.182;3.160;2023-05-07T04:52:01;13.70;99.90
11922;DHT22;6021;51.182;3.160;2023-05-07T04:54:30;13.70;99.90
11922;DHT22;6021;51.182;3.160;2023-05-07T04:56:59;13.80;99.90
11922;DHT22;6021;51.182;3.160;2023-05-07T04:59:27;13.80;99.90
11922;DHT22;6021;51.182;3.160;2023-05-07T05:01:55;13.80;99.90
11922;DHT22;6021;51.182;3.160;2023-05-07T05:04:24;13.80;99.90
11922;DHT22;6021;51.182;3.160;2023-05-07T05:06:53;13.80;99.90
11922;DHT22;6021;51.182;3.160;2023-05-07T05:09:21;13.80;99.90
11922;DHT22;6021;51.182;3.160;2023-05-07T05:11:50;13.80;99.90
11922;DHT22;6021;51.182;3.160;2023-05-07T05:14:18;13.90;99.90
11922;DHT22;6021;51.182;3.160;2023-05-07T05:16:47;13.90;99.90
11922;DHT22;6021;51.182;3.160;2023-05-07T05:19:15;13.90;99.90
11922;DHT22;6021;51.182;3.160;2023-05-07T05:21:43;13.90;99.90
11922;DHT22;6021;51.182;3.160;2023-05-07T05:24:12;13.90;99.90
11922;DHT22;6021;51.182;3.160;2023-05-07T05:26:40;13.90;99.90
11922;DHT22;6021;51.182;3.160;2023-05-07T05:29:08;14.00;99.90
11922;DHT22;6021;51.182;3.160;2023-05-07T05:31:37;14.10;99.90
11922;DHT22;6021;51.182;3.160;2023-05-07T05:34:05;14.10;99.90
11922;DHT22;6021;51.182;3.160;2023-05-07T05:36:34;14.20;99.90
11922;DHT22;6021;51.182;3.160;2023-05-07T05:39:02;14.20;99.90
11922;DHT22;6021;51.182;3.160;2023-05-07T05:41:31;14.10;99.90
11922;DHT22;6021;51.182;3.160;2023-05-07T05:43:59;14.30;99.90
11922;DHT22;6021;51.182;3.160;2023-05-07T05:46:27;14.20;99.90
11922;DHT22;6021;51.182;3.160;2023-05-07T05:48:56;14.40;99.90
11922;DHT22;6021;51.182;3.160;2023-05-07T05:51:24;14.50;99.90
11922;DHT22;6021;51.182;3.160;2023-05-07T05:53:53;14.60;99.90
11922;DHT22;6021;51.182;3.160;2023-05-07T05:56:22;14.60;99.90
11922;DHT22;6021;51.182;3.160;2023-05-07T05:58:50;14.60;99.90
11922;DHT22;6021;51.182;3.160;2023-05-07T06:01:19;14.60;99.90
11922;DHT22;6021;51.182;3.160;2023-05-07T06:03:47;14.60;99.90
11922;DHT22;6021;51.182;3.160;2023-05-07T06:06:15;14.60;99.90
11922;DHT22;6021;51.182;3.160;2023-05-07T06:08:44;14.70;99.90
11922;DHT22;6021;51.182;3.160;2023-05-07T06:11:12;14.80;99.90
11922;DHT22;6021;51.182;3.160;2023-05-07T06:13:40;15.20;99.90
11922;DHT22;6021;51.182;3.160;2023-05-07T06:16:09;14.90;99.90
11922;DHT22;6021;51.182;3.160;2023-05-07T06:18:37;14.90;99.90
11922;DHT22;6021;51.182;3.160;2023-05-07T06:21:05;14.80;99.90
11922;DHT22;6021;51.182;3.160;2023-05-07T06:23:34;14.90;99.90
11922;DHT22;6021;51.182;3.160;2023-05-07T06:26:02;15.00;99.90
11922;DHT22;6021;51.182;3.160;2023-05-07T06:28:31;14.80;99.90
11922;DHT22;6021;51.182;3.160;2023-05-07T06:31:14;15.10;99.90
11922;DHT22;6021;51.182;3.160;2023-05-07T06:33:44;15.10;99.90
11922;DHT22;6021;51.182;3.160;2023-05-07T06:36:13;15.10;99.90
11922;DHT22;6021;51.182;3.160;2023-05-07T06:38:41;15.30;99.90
11922;DHT22;6021;51.182;3.160;2023-05-07T06:41:10;15.30;99.90
11922;DHT22;6021;51.182;3.160;2023-05-07T06:43:38;15.40;99.90
11922;DHT22;6021;51.182;3.160;2023-05-07T06:46:06;15.50;99.90
11922;DHT22;6021;51.182;3.160;2023-05-07T06:48:35;15.50;99.90
11922;DHT22;6021;51.182;3.160;2023-05-07T06:51:03;15.60;99.90
11922;DHT22;6021;51.182;3.160;2023-05-07T06:53:32;15.70;99.90
11922;DHT22;6021;51.182;3.160;2023-05-07T06:56:01;15.80;99.90
11922;DHT22;6021;51.182;3.160;2023-05-07T06:58:30;15.70;99.90
11922;DHT22;6021;51.182;3.160;2023-05-07T07:00:58;15.80;99.90
11922;DHT22;6021;51.182;3.160;2023-05-07T07:03:26;15.80;99.90
11922;DHT22;6021;51.182;3.160;2023-05-07T07:05:55;15.80;99.90
11922;DHT22;6021;51.182;3.160;2023-05-07T07:08:23;15.90;99.90
11922;DHT22;6021;51.182;3.160;2023-05-07T07:10:52;15.90;99.90
11922;DHT22;6021;51.182;3.160;2023-05-07T07:13:20;16.00;99.90
11922;DHT22;6021;51.182;3.160;2023-05-07T07:15:48;16.00;99.90
11922;DHT22;6021;51.182;3.160;2023-05-07T07:18:17;15.90;99.90
11922;DHT22;6021;51.182;3.160;2023-05-07T07:20:45;16.10;99.90
11922;DHT22;6021;51.182;3.160;2023-05-07T07:23:13;16.10;99.90
11922;DHT22;6021;51.182;3.160;2023-05-07T07:25:42;16.10;99.90
11922;DHT22;6021;51.182;3.160;2023-05-07T07:28:10;16.10;99.90
11922;DHT22;6021;51.182;3.160;2023-05-07T07:30:39;16.10;99.90
11922;DHT22;6021;51.182;3.160;2023-05-07T07:33:07;16.20;99.90
11922;DHT22;6021;51.182;3.160;2023-05-07T07:35:36;16.20;99.90
11922;DHT22;6021;51.182;3.160;2023-05-07T07:38:04;16.20;99.90
11922;DHT22;6021;51.182;3.160;2023-05-07T07:40:34;16.30;99.90
11922;DHT22;6021;51.182;3.160;2023-05-07T07:43:02;16.20;99.90
11922;DHT22;6021;51.182;3.160;2023-05-07T07:45:32;16.20;99.90
11922;DHT22;6021;51.182;3.160;2023-05-07T07:48:00;16.20;99.90
11922;DHT22;6021;51.182;3.160;2023-05-07T07:50:29;16.20;99.90
11922;DHT22;6021;51.182;3.160;2023-05-07T07:52:57;16.20;99.90
11922;DHT22;6021;51.182;3.160;2023-05-07T07:55:25;16.50;99.90
11922;DHT22;6021;51.182;3.160;2023-05-07T07:57:54;16.50;99.90
11922;DHT22;6021;51.182;3.160;2023-05-07T08:00:22;16.40;99.90
11922;DHT22;6021;51.182;3.160;2023-05-07T08:02:51;16.40;99.90
11922;DHT22;6021;51.182;3.160;2023-05-07T08:05:19;16.30;99.90
11922;DHT22;6021;51.182;3.160;2023-05-07T08:07:50;16.40;99.90
11922;DHT22;6021;51.182;3.160;2023-05-07T08:10:21;16.40;99.90
11922;DHT22;6021;51.182;3.160;2023-05-07T08:12:49;16.40;99.90
11922;DHT22;6021;51.182;3.160;2023-05-07T08:15:18;16.50;99.90
11922;DHT22;6021;51.182;3.160;2023-05-07T08:17:46;16.80;99.90
11922;DHT22;6021;51.182;3.160;2023-05-07T08:20:15;16.80;99.90
11922;DHT22;6021;51.182;3.160;2023-05-07T08:22:43;16.80;99.90
11922;DHT22;6021;51.182;3.160;2023-05-07T08:25:12;16.80;99.90
11922;DHT22;6021;51.182;3.160;2023-05-07T08:27:42;16.70;99.90
11922;DHT22;6021;51.182;3.160;2023-05-07T08:30:12;16.50;99.90
11922;DHT22;6021;51.182;3.160;2023-05-07T08:32:40;16.40;99.90
11922;DHT22;6021;51.182;3.160;2023-05-07T08:35:12;16.40;99.90
11922;DHT22;6021;51.182;3.160;2023-05-07T08:37:40;16.40;99.90
11922;DHT22;6021;51.182;3.160;2023-05-07T08:40:08;16.60;99.90
11922;DHT22;6021;51.182;3.160;2023-05-07T08:42:37;16.50;99.90
11922;DHT22;6021;51.182;3.160;2023-05-07T08:45:08;16.50;99.90
11922;DHT22;6021;51.182;3.160;2023-05-07T08:47:45;16.80;99.90
11922;DHT22;6021;51.182;3.160;2023-05-07T08:50:15;16.80;99.90
11922;DHT22;6021;51.182;3.160;2023-05-07T08:52:43;16.70;99.90
11922;DHT22;6021;51.182;3.160;2023-05-07T08:55:13;16.80;99.90
11922;DHT22;6021;51.182;3.160;2023-05-07T08:57:42;16.70;99.90
11922;DHT22;6021;51.182;3.160;2023-05-07T09:00:11;16.70;99.90
11922;DHT22;6021;51.182;3.160;2023-05-07T09:02:39;16.70;99.90
11922;DHT22;6021;51.182;3.160;2023-05-07T09:05:08;16.70;99.90
11922;DHT22;6021;51.182;3.160;2023-05-07T09:07:36;16.80;99.90
11922;DHT22;6021;51.182;3.160;2023-05-07T09:10:06;16.70;99.90
11922;DHT22;6021;51.182;3.160;2023-05-07T09:12:34;16.80;99.90
11922;DHT22;6021;51.182;3.160;2023-05-07T09:15:03;16.80;99.90
11922;DHT22;6021;51.182;3.160;2023-05-07T09:17:32;16.80;99.90
11922;DHT22;6021;51.182;3.160;2023-05-07T09:20:05;16.70;99.90
11922;DHT22;6021;51.182;3.160;2023-05-07T09:22:36;16.60;99.90
11922;DHT22;6021;51.182;3.160;2023-05-07T09:25:06;16.50;99.90
11922;DHT22;6021;51.182;3.160;2023-05-07T09:27:35;16.40;99.90
11922;DHT22;6021;51.182;3.160;2023-05-07T09:30:05;16.40;99.90
11922;DHT22;6021;51.182;3.160;2023-05-07T09:32:37;16.40;99.90
11922;DHT22;6021;51.182;3.160;2023-05-07T09:35:08;16.30;99.90
11922;DHT22;6021;51.182;3.160;2023-05-07T09:37:47;16.20;99.90
11922;DHT22;6021;51.182;3.160;2023-05-07T09:40:22;16.30;99.90
11922;DHT22;6021;51.182;3.160;2023-05-07T09:42:51;16.30;99.90
11922;DHT22;6021;51.182;3.160;2023-05-07T09:45:31;16.20;99.90
11922;DHT22;6021;51.182;3.160;2023-05-07T09:47:59;16.20;99.90
11922;DHT22;6021;51.182;3.160;2023-05-07T09:50:38;16.30;99.90
11922;DHT22;6021;51.182;3.160;2023-05-07T09:53:04;16.30;99.90
11922;DHT22;6021;51.182;3.160;2023-05-07T09:55:30;16.40;99.90
11922;DHT22;6021;51.182;3.160;2023-05-07T09:57:59;16.40;99.90
11922;DHT22;6021;51.182;3.160;2023-05-07T10:00:29;16.50;99.90
11922;DHT22;6021;51.182;3.160;2023-05-07T10:03:01;16.60;99.90
11922;DHT22;6021;51.182;3.160;2023-05-07T10:05:31;16.70;99.90
11922;DHT22;6021;51.182;3.160;2023-05-07T10:08:01;16.90;99.90
11922;DHT22;6021;51.182;3.160;2023-05-07T10:10:30;16.80;99.90
11922;DHT22;6021;51.182;3.160;2023-05-07T10:12:59;16.70;99.90
11922;DHT22;6021;51.182;3.160;2023-05-07T10:15:29;16.70;99.90
11922;DHT22;6021;51.182;3.160;2023-05-07T10:17:57;16.70;99.90
11922;DHT22;6021;51.182;3.160;2023-05-07T10:20:26;16.70;99.90
11922;DHT22;6021;51.182;3.160;2023-05-07T10:22:56;16.80;99.90
11922;DHT22;6021;51.182;3.160;2023-05-07T10:25:30;16.80;99.90
11922;DHT22;6021;51.182;3.160;2023-05-07T10:28:02;16.70;99.90
11922;DHT22;6021;51.182;3.160;2023-05-07T10:33:24;16.60;99.90
11922;DHT22;6021;51.182;3.160;2023-05-07T10:35:57;16.40;99.90
11922;DHT22;6021;51.182;3.160;2023-05-07T10:38:27;16.40;99.90
11922;DHT22;6021;51.182;3.160;2023-05-07T10:40:56;16.40;99.90
11922;DHT22;6021;51.182;3.160;2023-05-07T10:43:24;16.40;99.90
11922;DHT22;6021;51.182;3.160;2023-05-07T10:46:13;16.30;99.90
11922;DHT22;6021;51.182;3.160;2023-05-07T10:51:33;16.30;99.90
11922;DHT22;6021;51.182;3.160;2023-05-07T10:56:43;16.50;99.90
11922;DHT22;6021;51.182;3.160;2023-05-07T11:01:55;16.50;99.90
11922;DHT22;6021;51.182;3.160;2023-05-07T11:04:25;16.40;99.90
11922;DHT22;6021;51.182;3.160;2023-05-07T11:09:55;16.10;99.90
11922;DHT22;6021;51.182;3.160;2023-05-07T11:15:10;16.30;99.90
11922;DHT22;6021;51.182;3.160;2023-05-07T11:17:58;16.70;99.90
11922;DHT22;6021;51.182;3.160;2023-05-07T11:20:49;16.80;99.90
11922;DHT22;6021;51.182;3.160;2023-05-07T11:26:06;16.80;99.90
11922;DHT22;6021;51.182;3.160;2023-05-07T11:28:42;16.80;99.90
11922;DHT22;6021;51.182;3.160;2023-05-07T11:31:10;16.80;99.90
11922;DHT22;6021;51.182;3.160;2023-05-07T11:33:39;16.70;99.90
11922;DHT22;6021;51.182;3.160;2023-05-07T11:36:08;16.70;99.90
11922;DHT22;6021;51.182;3.160;2023-05-07T11:38:42;16.70;99.90
11922;DHT22;6021;51.182;3.160;2023-05-07T11:41:08;16.70;99.90
11922;DHT22;6021;51.182;3.160;2023-05-07T11:43:37;16.70;99.90
11922;DHT22;6021;51.182;3.160;2023-05-07T11:46:09;16.70;99.90
11922;DHT22;6021;51.182;3.160;2023-05-07T11:48:38;16.70;99.90
11922;DHT22;6021;51.182;3.160;2023-05-07T11:51:07;16.70;99.90
11922;DHT22;6021;51.182;3.160;2023-05-07T11:53:43;17.00;99.90
11922;DHT22;6021;51.182;3.160;2023-05-07T11:56:16;17.20;99.90
11922;DHT22;6021;51.182;3.160;2023-05-07T11:58:48;17.20;99.90
11922;DHT22;6021;51.182;3.160;2023-05-07T12:01:18;17.40;99.90
11922;DHT22;6021;51.182;3.160;2023-05-07T12:03:46;17.40;99.90
11922;DHT22;6021;51.182;3.160;2023-05-07T12:06:16;17.50;99.90
11922;DHT22;6021;51.182;3.160;2023-05-07T12:08:45;17.40;99.90
11922;DHT22;6021;51.182;3.160;2023-05-07T12:11:18;17.60;99.90
11922;DHT22;6021;51.182;3.160;2023-05-07T12:13:46;17.60;99.90
11922;DHT22;6021;51.182;3.160;2023-05-07T12:16:14;17.50;99.90
11922;DHT22;6021;51.182;3.160;2023-05-07T12:18:43;17.40;99.90
11922;DHT22;6021;51.182;3.160;2023-05-07T12:21:12;17.20;99.90
11922;DHT22;6021;51.182;3.160;2023-05-07T12:23:40;17.10;99.90
11922;DHT22;6021;51.182;3.160;2023-05-07T12:26:09;17.20;99.90
11922;DHT22;6021;51.182;3.160;2023-05-07T12:28:38;17.10;99.90
11922;DHT22;6021;51.182;3.160;2023-05-07T12:31:07;17.10;99.90
11922;DHT22;6021;51.182;3.160;2023-05-07T12:33:36;17.10;99.90
11922;DHT22;6021;51.182;3.160;2023-05-07T12:36:06;17.00;99.90
11922;DHT22;6021;51.182;3.160;2023-05-07T12:38:36;16.90;99.90
11922;DHT22;6021;51.182;3.160;2023-05-07T12:41:07;16.90;99.90
11922;DHT22;6021;51.182;3.160;2023-05-07T12:43:35;17.00;99.90
11922;DHT22;6021;51.182;3.160;2023-05-07T12:46:07;17.20;99.90
11922;DHT22;6021;51.182;3.160;2023-05-07T12:48:43;17.50;99.90
11922;DHT22;6021;51.182;3.160;2023-05-07T12:51:14;17.50;99.90
11922;DHT22;6021;51.182;3.160;2023-05-07T12:53:43;17.70;99.90
11922;DHT22;6021;51.182;3.160;2023-05-07T12:56:12;17.50;99.90
11922;DHT22;6021;51.182;3.160;2023-05-07T12:58:42;17.40;99.90
11922;DHT22;6021;51.182;3.160;2023-05-07T13:01:10;17.30;99.90
11922;DHT22;6021;51.182;3.160;2023-05-07T13:03:40;17.20;99.90
11922;DHT22;6021;51.182;3.160;2023-05-07T13:06:09;17.20;99.90
11922;DHT22;6021;51.182;3.160;2023-05-07T13:08:41;17.10;99.90
11922;DHT22;6021;51.182;3.160;2023-05-07T13:11:13;17.30;99.90
11922;DHT22;6021;51.182;3.160;2023-05-07T13:13:42;17.40;99.90
11922;DHT22;6021;51.182;3.160;2023-05-07T13:16:11;17.50;99.90
11922;DHT22;6021;51.182;3.160;2023-05-07T13:18:40;17.60;99.90
11922;DHT22;6021;51.182;3.160;2023-05-07T13:21:10;17.50;99.90
11922;DHT22;6021;51.182;3.160;2023-05-07T13:23:40;17.80;99.90
11922;DHT22;6021;51.182;3.160;2023-05-07T13:26:09;17.90;99.90
11922;DHT22;6021;51.182;3.160;2023-05-07T13:28:38;18.00;99.90
11922;DHT22;6021;51.182;3.160;2023-05-07T13:31:06;18.00;99.90
11922;DHT22;6021;51.182;3.160;2023-05-07T13:33:34;18.00;99.90
11922;DHT22;6021;51.182;3.160;2023-05-07T13:36:03;17.90;99.90
11922;DHT22;6021;51.182;3.160;2023-05-07T13:38:32;17.90;99.90
11922;DHT22;6021;51.182;3.160;2023-05-07T13:41:01;18.00;99.90
11922;DHT22;6021;51.182;3.160;2023-05-07T13:43:29;18.10;99.90
11922;DHT22;6021;51.182;3.160;2023-05-07T13:46:00;18.10;99.90
11922;DHT22;6021;51.182;3.160;2023-05-07T13:48:28;18.50;99.90
11922;DHT22;6021;51.182;3.160;2023-05-07T13:50:56;18.50;99.90
11922;DHT22;6021;51.182;3.160;2023-05-07T13:53:25;18.80;99.90
11922;DHT22;6021;51.182;3.160;2023-05-07T13:55:54;18.70;99.90
11922;DHT22;6021;51.182;3.160;2023-05-07T13:58:22;18.70;99.90
11922;DHT22;6021;51.182;3.160;2023-05-07T14:00:51;18.60;99.90
11922;DHT22;6021;51.182;3.160;2023-05-07T14:03:19;18.40;99.90
11922;DHT22;6021;51.182;3.160;2023-05-07T14:08:45;18.10;99.90
11922;DHT22;6021;51.182;3.160;2023-05-07T14:11:13;18.00;99.90
11922;DHT22;6021;51.182;3.160;2023-05-07T14:13:43;18.10;99.90
11922;DHT22;6021;51.182;3.160;2023-05-07T14:16:14;18.10;99.90
11922;DHT22;6021;51.182;3.160;2023-05-07T14:18:42;18.30;99.90
11922;DHT22;6021;51.182;3.160;2023-05-07T14:21:10;18.40;99.90
11922;DHT22;6021;51.182;3.160;2023-05-07T14:23:41;18.60;99.90
11922;DHT22;6021;51.182;3.160;2023-05-07T14:26:15;18.70;90.00
11922;DHT22;6021;51.182;3.160;2023-05-07T14:28:43;18.70;56.90
11922;DHT22;6021;51.182;3.160;2023-05-07T14:31:13;18.60;18.70
11922;DHT22;6021;51.182;3.160;2023-05-07T14:33:42;18.70;22.40
11922;DHT22;6021;51.182;3.160;2023-05-07T14:36:12;18.50;10.40
11922;DHT22;6021;51.182;3.160;2023-05-07T14:41:23;18.30;57.30
11922;DHT22;6021;51.182;3.160;2023-05-07T14:43:50;18.20;99.90
11922;DHT22;6021;51.182;3.160;2023-05-07T14:46:30;18.10;99.90
11922;DHT22;6021;51.182;3.160;2023-05-07T14:49:02;18.30;99.90
11922;DHT22;6021;51.182;3.160;2023-05-07T14:51:32;18.20;99.90
11922;DHT22;6021;51.182;3.160;2023-05-07T14:54:06;18.10;99.90
11922;DHT22;6021;51.182;3.160;2023-05-07T14:56:30;18.00;99.90
11922;DHT22;6021;51.182;3.160;2023-05-07T14:58:59;17.90;99.90
11922;DHT22;6021;51.182;3.160;2023-05-07T15:01:42;17.80;99.90
11922;DHT22;6021;51.182;3.160;2023-05-07T15:04:14;17.70;99.90
11922;DHT22;6021;51.182;3.160;2023-05-07T15:06:43;17.70;99.90
11922;DHT22;6021;51.182;3.160;2023-05-07T15:09:13;17.70;99.90
11922;DHT22;6021;51.182;3.160;2023-05-07T15:11:44;17.50;99.90
11922;DHT22;6021;51.182;3.160;2023-05-07T15:14:14;17.60;99.90
11922;DHT22;6021;51.182;3.160;2023-05-07T15:16:58;17.50;99.90
11922;DHT22;6021;51.182;3.160;2023-05-07T15:19:28;17.60;99.90
11922;DHT22;6021;51.182;3.160;2023-05-07T15:21:59;17.70;99.90
11922;DHT22;6021;51.182;3.160;2023-05-07T15:24:31;17.60;99.90
11922;DHT22;6021;51.182;3.160;2023-05-07T15:27:05;17.60;99.90
11922;DHT22;6021;51.182;3.160;2023-05-07T15:29:34;17.50;99.90
11922;DHT22;6021;51.182;3.160;2023-05-07T15:32:05;17.60;99.90
11922;DHT22;6021;51.182;3.160;2023-05-07T15:34:41;17.60;99.90
11922;DHT22;6021;51.182;3.160;2023-05-07T15:37:13;17.70;99.90
11922;DHT22;6021;51.182;3.160;2023-05-07T15:40:03;17.70;99.90
11922;DHT22;6021;51.182;3.160;2023-05-07T15:42:28;17.70;99.90
11922;DHT22;6021;51.182;3.160;2023-05-07T15:45:03;17.60;99.90
11922;DHT22;6021;51.182;3.160;2023-05-07T15:47:36;17.60;99.90
11922;DHT22;6021;51.182;3.160;2023-05-07T15:50:19;17.60;99.90
11922;DHT22;6021;51.182;3.160;2023-05-07T15:52:50;17.60;99.90
11922;DHT22;6021;51.182;3.160;2023-05-07T15:55:24;17.80;99.90
11922;DHT22;6021;51.182;3.160;2023-05-07T15:57:54;17.90;99.90
11922;DHT22;6021;51.182;3.160;2023-05-07T16:00:27;18.00;99.90
11922;DHT22;6021;51.182;3.160;2023-05-07T16:02:58;18.10;99.90
11922;DHT22;6021;51.182;3.160;2023-05-07T16:05:29;18.20;99.90
11922;DHT22;6021;51.182;3.160;2023-05-07T16:08:00;18.20;99.90
11922;DHT22;6021;51.182;3.160;2023-05-07T16:10:35;18.20;99.90
11922;DHT22;6021;51.182;3.160;2023-05-07T16:13:12;18.20;99.90
11922;DHT22;6021;51.182;3.160;2023-05-07T16:15:58;18.30;99.90
11922;DHT22;6021;51.182;3.160;2023-05-07T16:18:29;18.40;99.90
11922;DHT22;6021;51.182;3.160;2023-05-07T16:20:57;18.30;98.90
11922;DHT22;6021;51.182;3.160;2023-05-07T16:23:35;18.40;99.90
11922;DHT22;6021;51.182;3.160;2023-05-07T16:26:12;18.30;99.90